createdAt,value
2019-05-26T00:00:27.418Z,5.90
2019-05-26T00:02:55.468Z,7.47
2019-05-26T00:05:23.530Z,6.03
2019-05-26T00:07:51.626Z,6.83
2019-05-26T00:10:19.631Z,3.40
2019-05-26T00:12:47.666Z,7.00
2019-05-26T00:15:15.935Z,6.10
2019-05-26T00:17:43.972Z,6.27
2019-05-26T00:20:12.354Z,6.10
2019-05-26T00:22:40.449Z,4.80
2019-05-26T00:25:08.730Z,8.10
2019-05-26T00:27:36.731Z,3.37
2019-05-26T00:30:05.096Z,8.20
2019-05-26T00:32:33.119Z,3.70
2019-05-26T00:35:01.154Z,7.33
2019-05-26T00:37:29.165Z,6.70
2019-05-26T00:39:57.182Z,5.00
2019-05-26T00:42:25.248Z,5.63
2019-05-26T00:44:53.265Z,6.57
2019-05-26T00:47:21.399Z,6.10
2019-05-26T00:49:49.438Z,5.77
2019-05-26T00:52:17.640Z,8.07
2019-05-26T00:54:45.754Z,5.87
2019-05-26T00:57:13.790Z,7.00
2019-05-26T00:59:41.797Z,3.67
2019-05-26T01:02:09.886Z,7.30
2019-05-26T01:04:38.016Z,8.10
2019-05-26T01:07:06.134Z,8.17
2019-05-26T01:09:34.146Z,5.77
2019-05-26T01:12:02.146Z,8.57
2019-05-26T01:14:30.247Z,6.93
2019-05-26T01:16:58.336Z,8.33
2019-05-26T01:19:26.344Z,11.47
2019-05-26T01:21:54.380Z,5.57
2019-05-26T01:24:22.407Z,5.93
2019-05-26T01:26:50.426Z,6.43
2019-05-26T01:29:18.451Z,6.27
2019-05-26T01:31:46.461Z,8.67
2019-05-26T01:34:14.520Z,4.00
2019-05-26T01:36:42.757Z,5.23
2019-05-26T01:39:10.758Z,6.13
2019-05-26T01:41:38.845Z,4.43
2019-05-26T01:44:06.860Z,6.93
2019-05-26T01:46:34.879Z,5.30
2019-05-26T01:49:02.915Z,5.93
2019-05-26T01:51:30.974Z,5.57
2019-05-26T01:53:59.023Z,4.13
2019-05-26T01:56:27.047Z,4.90
2019-05-26T01:58:55.374Z,5.07
2019-05-26T02:01:23.501Z,5.07
2019-05-26T02:03:51.484Z,6.63
2019-05-26T02:06:19.532Z,4.73
2019-05-26T02:08:47.647Z,5.77
2019-05-26T02:11:15.678Z,5.20
2019-05-26T02:13:43.732Z,4.17
2019-05-26T02:16:11.739Z,3.20
2019-05-26T02:18:39.810Z,5.20
2019-05-26T02:21:07.861Z,4.23
2019-05-26T02:23:35.890Z,3.27
2019-05-26T02:26:04.026Z,4.30
2019-05-26T02:28:32.045Z,4.07
2019-05-26T02:31:00.092Z,5.03
2019-05-26T02:33:28.106Z,5.20
2019-05-26T02:35:56.177Z,4.37
2019-05-26T02:38:26.316Z,3.87
2019-05-26T02:40:53.871Z,5.60
2019-05-26T02:43:22.006Z,5.33
2019-05-26T02:45:50.005Z,4.87
2019-05-26T02:48:18.105Z,10.67
2019-05-26T02:50:46.143Z,7.17
2019-05-26T02:53:14.162Z,5.23
2019-05-26T02:55:42.186Z,4.47
2019-05-26T02:58:10.299Z,3.80
2019-05-26T03:00:43.298Z,6.37
2019-05-26T03:03:11.932Z,5.57
2019-05-26T03:05:40.831Z,6.87
2019-05-26T03:08:09.157Z,4.90
2019-05-26T03:10:38.146Z,3.43
2019-05-26T03:13:06.151Z,7.13
2019-05-26T03:15:35.356Z,4.10
2019-05-26T03:18:05.260Z,4.47
2019-05-26T03:20:36.049Z,9.23
2019-05-26T03:23:04.447Z,5.27
2019-05-26T03:25:34.046Z,4.13
2019-05-26T03:28:02.055Z,3.63
2019-05-26T03:30:30.065Z,7.57
2019-05-26T03:32:58.105Z,6.43
2019-05-26T03:35:26.082Z,6.77
2019-05-26T03:37:54.096Z,7.33
2019-05-26T03:40:22.170Z,8.17
2019-05-26T03:42:50.197Z,5.47
2019-05-26T03:45:23.611Z,8.37
2019-05-26T03:47:51.822Z,7.33
2019-05-26T03:50:19.863Z,9.63
2019-05-26T03:52:47.872Z,6.93
2019-05-26T03:55:15.898Z,6.57
2019-05-26T03:57:43.919Z,5.83
2019-05-26T04:00:12.109Z,9.53
2019-05-26T04:02:40.117Z,6.63
2019-05-26T04:05:08.256Z,8.43
2019-05-26T04:07:36.290Z,8.13
2019-05-26T04:10:06.202Z,7.07
2019-05-26T04:12:34.642Z,6.20
2019-05-26T04:15:02.650Z,11.07
2019-05-26T04:17:30.649Z,9.00
2019-05-26T04:19:58.659Z,9.80
2019-05-26T04:22:26.677Z,8.70
2019-05-26T04:24:54.717Z,10.53
2019-05-26T04:27:22.740Z,8.03
2019-05-26T04:29:50.751Z,7.63
2019-05-26T04:32:18.816Z,7.93
2019-05-26T04:34:46.808Z,7.33
2019-05-26T04:37:14.873Z,10.80
2019-05-26T04:39:42.890Z,10.00
2019-05-26T04:42:10.894Z,9.07
2019-05-26T04:44:39.010Z,6.63
2019-05-26T04:47:07.009Z,7.50
2019-05-26T04:49:37.614Z,9.33
2019-05-26T04:52:04.711Z,13.27
2019-05-26T04:54:32.741Z,6.23
2019-05-26T04:57:00.789Z,12.10
2019-05-26T04:59:28.819Z,6.87
2019-05-26T05:01:56.880Z,6.33
2019-05-26T05:04:24.918Z,6.43
2019-05-26T05:06:52.934Z,9.60
2019-05-26T05:09:20.970Z,8.20
2019-05-26T05:11:48.999Z,9.83
2019-05-26T05:14:17.443Z,6.33
2019-05-26T05:16:45.518Z,8.23
2019-05-26T05:19:13.544Z,5.13
2019-05-26T05:21:41.558Z,7.77
2019-05-26T05:24:09.557Z,9.40
2019-05-26T05:26:37.557Z,4.30
2019-05-26T05:29:05.782Z,6.77
2019-05-26T05:31:33.791Z,6.97
2019-05-26T05:34:01.806Z,7.03
2019-05-26T05:36:29.863Z,6.73
2019-05-26T05:38:57.857Z,5.07
2019-05-26T05:41:25.895Z,6.67
2019-05-26T05:43:53.955Z,7.07
2019-05-26T05:46:22.041Z,10.17
2019-05-26T05:48:50.033Z,7.23
2019-05-26T05:51:18.063Z,6.37
2019-05-26T05:53:46.112Z,7.93
2019-05-26T05:56:14.126Z,6.50
2019-05-26T05:58:42.141Z,6.93
2019-05-26T06:01:10.223Z,7.50
2019-05-26T06:03:38.203Z,6.07
2019-05-26T06:06:06.219Z,6.83
2019-05-26T06:08:34.560Z,7.10
2019-05-26T06:11:15.305Z,11.03
2019-05-26T06:13:32.271Z,7.77
2019-05-26T06:16:00.289Z,7.90
2019-05-26T06:18:28.434Z,6.70
2019-05-26T06:20:56.462Z,8.83
2019-05-26T06:23:25.142Z,10.97
2019-05-26T06:25:53.154Z,7.23
2019-05-26T06:28:21.395Z,8.27
2019-05-26T06:30:49.401Z,7.57
2019-05-26T06:33:17.453Z,11.13
2019-05-26T06:35:45.649Z,8.70
2019-05-26T06:38:13.669Z,9.40
2019-05-26T06:40:41.682Z,9.50
2019-05-26T06:43:09.701Z,10.53
2019-05-26T06:45:38.556Z,8.90
2019-05-26T06:48:06.610Z,8.40
2019-05-26T06:50:34.644Z,10.87
2019-05-26T06:53:03.022Z,10.17
2019-05-26T06:55:31.114Z,7.53
2019-05-26T06:57:59.256Z,12.17
2019-05-26T07:00:27.307Z,12.80
2019-05-26T07:02:55.558Z,14.10
2019-05-26T07:05:23.579Z,11.40
2019-05-26T07:07:51.619Z,11.07
2019-05-26T07:10:20.493Z,10.53
2019-05-26T07:12:48.803Z,11.67
2019-05-26T07:15:17.161Z,12.67
2019-05-26T07:17:45.212Z,12.70
2019-05-26T07:20:13.635Z,13.10
2019-05-26T07:22:42.166Z,10.17
2019-05-26T07:25:10.571Z,11.93
2019-05-26T07:27:38.574Z,13.53
2019-05-26T07:30:06.875Z,12.13
2019-05-26T07:32:34.916Z,10.67
2019-05-26T07:35:02.959Z,14.63
2019-05-26T07:37:30.963Z,13.20
2019-05-26T07:39:58.998Z,11.40
2019-05-26T07:42:27.067Z,13.20
2019-05-26T07:44:55.119Z,14.43
2019-05-26T07:47:23.147Z,12.83
2019-05-26T07:49:51.290Z,11.47
2019-05-26T07:52:19.344Z,10.67
2019-05-26T07:54:47.395Z,11.20
2019-05-26T07:57:15.474Z,11.87
2019-05-26T07:59:43.497Z,9.93
2019-05-26T08:02:11.527Z,10.83
2019-05-26T08:04:39.587Z,11.97
2019-05-26T08:07:07.692Z,9.27
2019-05-26T08:09:35.688Z,10.97
2019-05-26T08:12:04.018Z,11.60
2019-05-26T08:14:32.050Z,11.60
2019-05-26T08:17:01.086Z,14.07
2019-05-26T08:19:29.090Z,11.13
2019-05-26T08:21:57.084Z,9.93
2019-05-26T08:24:25.184Z,11.23
2019-05-26T08:26:53.169Z,10.43
2019-05-26T08:29:21.321Z,10.77
2019-05-26T08:31:49.497Z,14.53
2019-05-26T08:34:17.636Z,11.17
2019-05-26T08:36:45.695Z,12.37
2019-05-26T08:39:14.005Z,10.50
2019-05-26T08:41:42.330Z,9.47
2019-05-26T08:44:10.477Z,13.17
2019-05-26T08:46:38.491Z,12.03
2019-05-26T08:49:06.511Z,13.50
2019-05-26T08:51:34.558Z,12.37
2019-05-26T08:54:02.658Z,10.07
2019-05-26T08:56:30.742Z,10.00
2019-05-26T08:58:58.861Z,12.40
2019-05-26T09:01:26.987Z,9.93
2019-05-26T09:03:54.993Z,11.47
2019-05-26T09:06:23.015Z,10.10
2019-05-26T09:08:51.063Z,11.23
2019-05-26T09:11:19.439Z,13.43
2019-05-26T09:13:47.493Z,10.57
2019-05-26T09:16:15.661Z,10.13
2019-05-26T09:18:43.789Z,9.83
2019-05-26T09:21:11.834Z,9.33
2019-05-26T09:23:39.951Z,11.17
2019-05-26T09:26:08.051Z,11.37
2019-05-26T09:28:54.634Z,10.10
2019-05-26T09:31:22.708Z,11.47
2019-05-26T09:33:50.794Z,10.20
2019-05-26T09:36:18.893Z,9.90
2019-05-26T09:38:46.999Z,12.37
2019-05-26T09:41:15.018Z,10.87
2019-05-26T09:43:43.089Z,9.93
2019-05-26T09:46:23.865Z,13.43
2019-05-26T09:48:52.116Z,13.27
2019-05-26T09:51:20.280Z,12.70
2019-05-26T09:54:01.176Z,10.70
2019-05-26T09:56:19.335Z,11.37
2019-05-26T09:58:47.381Z,13.30
2019-05-26T10:01:15.456Z,11.53
2019-05-26T10:03:43.515Z,10.53
2019-05-26T10:06:11.675Z,12.90
2019-05-26T10:08:39.748Z,15.97
2019-05-26T10:11:07.888Z,13.97
2019-05-26T10:13:35.955Z,12.17
2019-05-26T10:16:04.028Z,12.47
2019-05-26T10:18:32.098Z,13.63
2019-05-26T10:21:00.797Z,13.50
2019-05-26T10:23:28.942Z,13.77
2019-05-26T10:25:57.896Z,17.10
2019-05-26T10:28:27.171Z,18.57
2019-05-26T10:30:55.894Z,15.27
2019-05-26T10:33:24.694Z,13.83
2019-05-26T10:35:53.425Z,14.53
2019-05-26T10:38:22.408Z,14.23
2019-05-26T10:40:51.609Z,15.37
2019-05-26T10:43:20.248Z,14.33
2019-05-26T10:45:48.955Z,16.20
2019-05-26T10:48:17.584Z,15.57
2019-05-26T10:50:46.221Z,15.00
2019-05-26T10:56:36.600Z,15.07
2019-05-26T10:59:04.877Z,17.43
2019-05-26T11:01:54.565Z,16.27
2019-05-26T11:04:22.729Z,17.87
2019-05-26T11:06:51.042Z,16.67
2019-05-26T11:09:19.363Z,16.53
2019-05-26T11:11:47.437Z,18.40
2019-05-26T11:17:25.100Z,22.50
2019-05-26T11:20:06.460Z,20.00
2019-05-26T11:22:35.483Z,20.53
2019-05-26T11:25:03.534Z,21.00
2019-05-26T11:27:31.991Z,24.93
2019-05-26T11:30:00.272Z,20.17
2019-05-26T11:32:28.826Z,17.60
2019-05-26T11:35:01.750Z,19.63
2019-05-26T11:37:26.603Z,17.77
2019-05-26T11:39:54.843Z,17.50
2019-05-26T11:42:23.039Z,18.47
2019-05-26T11:44:51.222Z,18.67
2019-05-26T11:47:31.810Z,15.80
2019-05-26T11:49:59.944Z,16.63
2019-05-26T11:52:28.004Z,15.97
2019-05-26T11:55:05.486Z,13.97
2019-05-26T11:57:36.391Z,13.83
2019-05-26T12:00:03.611Z,13.93
2019-05-26T12:02:31.668Z,13.93
2019-05-26T12:05:33.145Z,14.60
2019-05-26T12:08:01.313Z,15.03
2019-05-26T12:10:29.730Z,14.80
2019-05-26T12:12:57.837Z,14.17
2019-05-26T12:15:26.929Z,16.17
2019-05-26T12:17:55.285Z,14.57
2019-05-26T12:20:23.849Z,13.67
2019-05-26T12:22:52.010Z,13.13
2019-05-26T12:25:20.518Z,13.37
2019-05-26T12:27:49.425Z,13.73
2019-05-26T12:30:17.823Z,15.27
2019-05-26T12:32:45.969Z,18.47
2019-05-26T12:35:14.243Z,15.87
2019-05-26T12:37:42.417Z,14.57
2019-05-26T12:40:10.900Z,13.20
2019-05-26T12:42:38.990Z,13.43
2019-05-26T12:45:08.122Z,15.97
2019-05-26T12:47:36.527Z,15.13
2019-05-26T12:50:05.301Z,12.60
2019-05-26T12:52:33.479Z,14.17
2019-05-26T12:55:02.195Z,13.00
2019-05-26T12:57:30.748Z,12.93
2019-05-26T12:59:58.835Z,13.40
2019-05-26T13:02:26.960Z,13.00
2019-05-26T13:04:55.050Z,12.33
2019-05-26T13:07:23.151Z,11.47
2019-05-26T13:09:51.221Z,12.00
2019-05-26T13:12:19.575Z,12.03
2019-05-26T13:15:03.210Z,11.60
2019-05-26T13:17:19.302Z,10.87
2019-05-26T13:19:47.465Z,11.23
2019-05-26T13:22:15.788Z,11.53
2019-05-26T13:24:43.823Z,10.63
2019-05-26T13:27:12.814Z,12.93
2019-05-26T13:29:41.022Z,10.80
2019-05-26T13:32:09.657Z,10.70
2019-05-26T13:34:37.984Z,11.87
2019-05-26T13:37:06.270Z,10.67
2019-05-26T13:39:34.360Z,13.00
2019-05-26T13:42:04.553Z,9.73
2019-05-26T13:44:32.844Z,10.53
2019-05-26T13:47:00.949Z,22.70
2019-05-26T13:49:29.032Z,11.43
2019-05-26T13:51:57.255Z,11.10
2019-05-26T13:54:25.663Z,14.83
2019-05-26T13:56:53.776Z,13.37
2019-05-26T13:59:21.869Z,10.97
2019-05-26T14:04:59.391Z,13.13
2019-05-26T14:07:28.120Z,9.27
2019-05-26T14:09:56.685Z,10.07
2019-05-26T14:12:25.764Z,9.20
2019-05-26T14:14:55.233Z,9.40
2019-05-26T14:17:24.077Z,12.30
2019-05-26T14:19:52.679Z,8.10
2019-05-26T14:22:22.269Z,12.30
2019-05-26T14:24:54.207Z,9.30
2019-05-26T14:27:21.880Z,12.53
2019-05-26T14:29:51.010Z,11.50
2019-05-26T14:32:20.056Z,9.73
2019-05-26T14:34:49.148Z,12.83
2019-05-26T14:40:27.552Z,9.10
2019-05-26T14:42:55.668Z,9.77
2019-05-26T14:45:23.895Z,7.80
2019-05-26T14:47:52.027Z,11.50
2019-05-26T14:50:20.251Z,7.77
2019-05-26T14:52:48.296Z,6.77
2019-05-26T14:55:16.596Z,11.10
2019-05-26T14:57:44.724Z,10.40
2019-05-26T15:00:14.351Z,7.27
2019-05-26T15:02:42.381Z,8.20
2019-05-26T15:05:10.919Z,8.80
2019-05-26T15:07:38.984Z,10.57
2019-05-26T15:10:07.241Z,8.57
2019-05-26T15:12:35.555Z,11.67
2019-05-26T15:15:04.889Z,10.93
2019-05-26T15:17:33.448Z,8.67
2019-05-26T15:20:02.348Z,8.53
2019-05-26T15:22:30.441Z,10.00
2019-05-26T15:24:58.639Z,8.43
2019-05-26T15:27:26.791Z,8.63
2019-05-26T15:29:54.960Z,7.40
2019-05-26T15:32:22.989Z,8.50
2019-05-26T15:34:51.268Z,11.43
2019-05-26T15:37:19.320Z,10.10
2019-05-26T15:39:47.929Z,11.47
2019-05-26T15:42:15.891Z,8.23
2019-05-26T15:44:44.009Z,13.47
2019-05-26T15:47:12.048Z,8.57
2019-05-26T15:49:40.139Z,8.90
2019-05-26T15:52:08.531Z,10.33
2019-05-26T15:54:38.747Z,10.07
2019-05-26T15:57:06.800Z,8.53
2019-05-26T15:59:35.204Z,8.97
2019-05-26T16:02:05.984Z,8.60
2019-05-26T16:04:34.083Z,7.63
2019-05-26T16:07:02.100Z,7.87
2019-05-26T16:09:30.205Z,8.47
2019-05-26T16:11:58.560Z,9.07
2019-05-26T16:14:26.638Z,7.97
2019-05-26T16:16:54.701Z,8.00
2019-05-26T16:19:22.815Z,8.00
2019-05-26T16:21:50.997Z,9.73
2019-05-26T16:24:19.093Z,9.90
2019-05-26T16:26:47.331Z,8.17
2019-05-26T16:29:15.501Z,7.37
2019-05-26T16:31:43.665Z,6.67
2019-05-26T16:34:11.964Z,7.43
2019-05-26T16:36:40.057Z,6.40
2019-05-26T16:39:08.378Z,8.27
2019-05-26T16:41:36.675Z,7.13
2019-05-26T16:44:04.724Z,8.17
2019-05-26T16:46:32.791Z,7.43
2019-05-26T16:52:22.810Z,8.13
2019-05-26T16:54:51.018Z,6.77
2019-05-26T16:57:19.665Z,9.87
2019-05-26T16:59:47.911Z,13.23
2019-05-26T17:02:16.598Z,13.00
2019-05-26T17:04:44.905Z,10.97
2019-05-26T17:07:43.314Z,8.13
2019-05-26T17:10:12.851Z,10.00
2019-05-26T17:12:42.073Z,9.63
2019-05-26T17:15:10.919Z,10.03
2019-05-26T17:17:39.903Z,19.77
2019-05-26T17:20:08.931Z,15.50
2019-05-26T17:22:37.065Z,19.77
2019-05-26T17:25:06.193Z,12.33
2019-05-26T17:27:34.520Z,12.17
2019-05-26T17:30:03.023Z,10.53
2019-05-26T17:32:32.096Z,14.10
2019-05-26T17:35:00.377Z,13.23
2019-05-26T17:37:28.660Z,11.20
2019-05-26T17:39:56.858Z,15.47
2019-05-26T17:42:25.895Z,11.23
2019-05-26T17:44:54.509Z,13.93
2019-05-26T17:47:30.173Z,14.10
2019-05-26T17:49:52.689Z,14.17
2019-05-26T17:52:20.991Z,12.83
2019-05-26T17:54:49.283Z,10.70
2019-05-26T17:57:17.826Z,10.93
2019-05-26T17:59:46.076Z,13.03
2019-05-26T18:02:15.217Z,12.43
2019-05-26T18:04:43.331Z,11.57
2019-05-26T18:07:11.548Z,11.20
2019-05-26T18:09:44.324Z,11.10
2019-05-26T18:12:09.663Z,11.83
2019-05-26T18:14:38.774Z,24.50
2019-05-26T18:17:07.883Z,17.67
2019-05-26T18:19:37.089Z,12.50
2019-05-26T18:22:06.147Z,17.20
2019-05-26T18:24:34.542Z,15.80
2019-05-26T18:27:04.123Z,17.33
2019-05-26T18:29:32.147Z,22.00
2019-05-26T18:32:00.923Z,16.87
2019-05-26T18:34:29.167Z,24.80
2019-05-26T18:36:57.824Z,13.30
2019-05-26T18:39:26.093Z,10.23
2019-05-26T18:41:54.428Z,15.60
2019-05-26T18:44:23.415Z,15.77
2019-05-26T18:46:53.656Z,13.93
2019-05-26T18:49:22.245Z,13.30
2019-05-26T18:51:50.499Z,15.87
2019-05-26T18:54:19.384Z,13.77
2019-05-26T18:56:47.761Z,12.43
2019-05-26T18:59:16.297Z,11.73
2019-05-26T19:01:44.547Z,9.43
2019-05-26T19:04:12.836Z,6.70
2019-05-26T19:06:41.330Z,6.30
2019-05-26T19:09:09.409Z,5.17
2019-05-26T19:11:38.327Z,7.30
2019-05-26T19:14:27.445Z,5.50
2019-05-26T19:16:56.227Z,6.40
2019-05-26T19:22:33.521Z,3.57
2019-05-26T19:25:01.703Z,4.10
2019-05-26T19:27:29.872Z,5.97
2019-05-26T19:29:58.215Z,3.40
2019-05-26T19:32:27.267Z,4.37
2019-05-26T19:34:55.754Z,3.40
2019-05-26T19:37:24.637Z,6.50
2019-05-26T19:39:53.004Z,5.73
2019-05-26T19:42:22.177Z,4.67
2019-05-26T19:44:50.636Z,4.50
2019-05-26T19:47:18.791Z,3.03
2019-05-26T19:49:46.862Z,3.70
2019-05-26T19:52:15.953Z,5.20
2019-05-26T19:54:44.741Z,3.70
2019-05-26T19:57:12.967Z,3.13
2019-05-26T19:59:42.154Z,3.80
2019-05-26T20:02:19.356Z,3.63
2019-05-26T20:04:47.512Z,4.27
2019-05-26T20:07:16.100Z,4.13
2019-05-26T20:09:44.268Z,7.43
2019-05-26T20:12:13.235Z,4.77
2019-05-26T20:14:41.991Z,4.73
2019-05-26T20:17:10.245Z,5.93
2019-05-26T20:19:38.525Z,5.03
2019-05-26T20:22:07.077Z,5.43
2019-05-26T20:24:36.128Z,5.37
2019-05-26T20:27:04.737Z,5.57
2019-05-26T20:29:32.816Z,5.83
2019-05-26T20:32:01.697Z,6.90
2019-05-26T20:34:30.028Z,6.00
2019-05-26T20:36:58.518Z,6.60
2019-05-26T20:39:27.331Z,6.80
2019-05-26T20:41:55.650Z,7.53
2019-05-26T20:44:42.340Z,10.23
2019-05-26T20:47:11.444Z,7.40
2019-05-26T20:49:45.403Z,8.23
2019-05-26T20:52:10.295Z,9.40
2019-05-26T20:54:38.501Z,7.57
2019-05-26T20:57:12.799Z,9.03
2019-05-26T20:59:40.979Z,7.93
2019-05-26T21:02:10.205Z,9.27
2019-05-26T21:04:39.556Z,8.90
2019-05-26T21:07:08.288Z,9.10
2019-05-26T21:09:37.094Z,9.20
2019-05-26T21:12:06.298Z,11.17
2019-05-26T21:14:35.195Z,11.93
2019-05-26T21:17:03.225Z,10.27
2019-05-26T21:19:31.395Z,10.70
2019-05-26T21:21:59.530Z,10.97
2019-05-26T21:24:27.712Z,9.87
2019-05-26T21:26:55.946Z,12.77
2019-05-26T21:29:24.090Z,13.10
2019-05-26T21:31:52.090Z,11.70
2019-05-26T21:34:20.874Z,11.47
2019-05-26T21:36:48.890Z,12.47
2019-05-26T21:39:17.069Z,13.27
2019-05-26T21:41:45.284Z,15.03
2019-05-26T21:44:13.667Z,12.63
2019-05-26T21:47:06.092Z,13.50
2019-05-26T21:49:34.299Z,13.23
2019-05-26T21:52:02.481Z,12.90
2019-05-26T21:54:31.157Z,13.83
2019-05-26T21:56:59.730Z,13.80
2019-05-26T21:59:27.885Z,16.23
2019-05-26T22:01:56.886Z,15.23
2019-05-26T22:04:25.684Z,14.53
2019-05-26T22:06:54.426Z,14.00
2019-05-26T22:09:23.385Z,15.87
2019-05-26T22:11:51.730Z,14.40
2019-05-26T22:14:19.812Z,13.67
2019-05-26T22:16:48.016Z,13.03
2019-05-26T22:19:17.029Z,11.77
2019-05-26T22:21:45.194Z,18.03
2019-05-26T22:24:14.101Z,12.40
2019-05-26T22:26:42.358Z,9.00
2019-05-26T22:29:10.402Z,8.80
2019-05-26T22:31:38.462Z,9.63
2019-05-26T22:34:06.517Z,7.87
2019-05-26T22:36:35.043Z,8.43
2019-05-26T22:39:03.926Z,7.07
2019-05-26T22:41:32.812Z,6.93
2019-05-26T22:44:01.162Z,7.27
2019-05-26T22:46:29.218Z,7.53
2019-05-26T22:48:57.248Z,9.20
2019-05-26T22:51:25.335Z,6.70
2019-05-26T22:53:53.344Z,7.83
2019-05-26T22:56:21.384Z,7.47
2019-05-26T22:58:49.434Z,6.90
2019-05-26T23:01:17.527Z,6.17
2019-05-26T23:03:45.524Z,6.10
2019-05-26T23:06:13.627Z,5.90
2019-05-26T23:08:41.631Z,5.33
2019-05-26T23:11:09.684Z,5.63
2019-05-26T23:13:37.712Z,8.30
2019-05-26T23:16:05.820Z,4.93
2019-05-26T23:18:33.767Z,6.60
2019-05-26T23:21:01.836Z,8.40
2019-05-26T23:23:29.866Z,4.77
2019-05-26T23:25:57.900Z,3.83
2019-05-26T23:28:25.994Z,4.40
2019-05-26T23:30:54.012Z,4.43
2019-05-26T23:33:22.063Z,3.70
2019-05-26T23:35:50.099Z,3.67
2019-05-26T23:38:18.150Z,3.83
2019-05-26T23:40:46.190Z,5.03
2019-05-26T23:43:14.206Z,4.00
2019-05-26T23:45:42.375Z,3.47
2019-05-26T23:48:10.530Z,3.90
2019-05-26T23:50:38.538Z,4.53
2019-05-26T23:53:06.592Z,4.40
2019-05-26T23:55:34.613Z,4.20
2019-05-26T23:58:02.651Z,5.57
